»·PEaware :: N900TB KPWT-CYZP

N900TB :: KPWT-CYZP

FLIGHT INFORMATION

Flight Status: Arrived
Operator: Privately registered:
United States
More flights under this callsign
Pilot: Anonymous 14085 (14085)
Aircraft: SOCATA TBM-900
(TBM9)
More flights by this aircraft type
Origin: KPWT Bremerton Natl
United States
Destination: CYZP Sandspit
Canada
More flights between these airports :: More routes between these airports
Route: ARRIE J523 TOU J501 YAZ Q801 YZP
File this flight plan on PilotEdge
Remarks: RMK / SIMBRIEF
Altitude:
(Current/Filed)
28,000ft
Speed:
(Current/Filed)
320kts
Departed: 29-Jul-20 07:19 AM
Arrived: 29-Jul-20 09:16 AM
Distance/Time
Traveled:
489nm/1:57
Distance/Time
To Go:
Arrived

Flight Plot

Page will automatically refresh every two minutes.


Map Options




Map Legend


Flown Route
Filed Route
Departure Airport
Arrival Airport
Navaid (VOR, NDB)
Fix

Horizontal Profiles

Position Reports

Time Latitude Longitude Heading Altitude Ground
Speed
29-Jul-20 07:07 47.492279 -122.766396 32 444ft 0kts
29-Jul-20 07:08 47.492279 -122.766396 32 444ft 0kts
29-Jul-20 07:09 47.492279 -122.766396 32 444ft 0kts
29-Jul-20 07:10 47.492279 -122.766396 32 444ft 0kts
29-Jul-20 07:11 47.492279 -122.766396 32 444ft 0kts
29-Jul-20 07:13 47.492528 -122.766081 57 444ft 1kts
29-Jul-20 07:14 47.493529 -122.764538 26 444ft 8kts
29-Jul-20 07:15 47.494288 -122.762896 53 444ft 3kts
29-Jul-20 07:16 47.495304 -122.761940 35 444ft 5kts
29-Jul-20 07:17 47.496620 -122.760710 31 444ft 5kts
29-Jul-20 07:18 47.497498 -122.759097 125 444ft 6kts
29-Jul-20 07:19 47.492391 -122.762766 212 444ft 105kts
29-Jul-20 07:20 47.467215 -122.790984 244 2388ft 125kts
29-Jul-20 07:21 47.478413 -122.831599 338 4511ft 126kts
29-Jul-20 07:22 47.515184 -122.852213 337 6295ft 150kts
29-Jul-20 07:23 47.552495 -122.879895 312 8374ft 153kts
29-Jul-20 07:24 47.580623 -122.928055 304 10450ft 160kts
29-Jul-20 07:25 47.610571 -122.982374 303 12492ft 181kts
29-Jul-20 07:26 47.642843 -123.041035 303 14444ft 187kts
29-Jul-20 07:27 47.676069 -123.101558 303 16212ft 192kts
29-Jul-20 07:28 47.710111 -123.163718 304 17810ft 196kts
29-Jul-20 07:29 47.744982 -123.227530 304 19251ft 200kts
29-Jul-20 07:30 47.780311 -123.292330 304 20546ft 204kts
29-Jul-20 07:30 47.810783 -123.348350 304 22003ft 210kts
29-Jul-20 07:32 47.854090 -123.428148 305 24355ft 216kts
29-Jul-20 07:32 47.884185 -123.488042 296 25834ft 219kts
29-Jul-20 07:33 47.914161 -123.567942 296 27414ft 224kts
29-Jul-20 07:34 47.946709 -123.655676 295 28035ft 252kts
29-Jul-20 07:35 47.982778 -123.753270 296 28280ft 272kts
29-Jul-20 07:36 48.018752 -123.850917 296 29127ft 268kts
29-Jul-20 07:37 48.055404 -123.950816 296 29524ft 274kts
29-Jul-20 07:38 48.092016 -124.050973 296 30015ft 276kts
29-Jul-20 07:39 48.129272 -124.153296 296 30031ft 288kts
29-Jul-20 07:40 48.167982 -124.260035 296 30027ft 293kts
29-Jul-20 07:41 48.206946 -124.367912 296 30026ft 294kts
29-Jul-20 07:42 48.245935 -124.476296 296 30026ft 295kts
29-Jul-20 07:43 48.284855 -124.584943 296 30025ft 295kts
29-Jul-20 07:44 48.337140 -124.679707 313 30028ft 299kts
29-Jul-20 07:45 48.397849 -124.765684 313 30027ft 299kts
29-Jul-20 07:46 48.458374 -124.851704 313 30027ft 299kts
29-Jul-20 07:47 48.519006 -124.938206 313 30027ft 300kts
29-Jul-20 07:48 48.579501 -125.024805 312 30027ft 301kts
29-Jul-20 07:49 48.640439 -125.112372 312 30025ft 302kts
29-Jul-20 07:50 48.701179 -125.199940 312 30020ft 302kts
29-Jul-20 07:51 48.761913 -125.287805 312 30018ft 302kts
29-Jul-20 07:52 48.822808 -125.376215 312 30018ft 302kts
29-Jul-20 07:53 48.883401 -125.464498 312 30017ft 302kts
29-Jul-20 07:54 48.944005 -125.553109 312 30017ft 302kts
29-Jul-20 07:55 49.004593 -125.641971 312 30017ft 302kts
29-Jul-20 07:56 49.064985 -125.731235 310 30021ft 302kts
29-Jul-20 07:57 49.125160 -125.821264 309 30017ft 303kts
29-Jul-20 07:58 49.184995 -125.911153 309 30017ft 303kts
29-Jul-20 07:59 49.245147 -126.001802 309 30017ft 303kts
29-Jul-20 08:00 49.260156 -126.024471 309 30017ft 303kts
29-Jul-20 08:01 49.260156 -126.024471 309 30017ft 303kts
29-Jul-20 08:02 49.260156 -126.024471 309 30017ft 303kts
29-Jul-20 08:03 49.260156 -126.024471 309 30017ft 303kts
29-Jul-20 08:04 49.260156 -126.024471 309 30017ft 303kts
29-Jul-20 08:05 49.260156 -126.024471 309 30017ft 303kts
29-Jul-20 08:06 49.306874 -126.096472 309 30026ft 303kts
29-Jul-20 08:07 49.366407 -126.188654 309 30026ft 304kts
29-Jul-20 08:08 49.425949 -126.281461 309 30026ft 305kts
29-Jul-20 08:09 49.485425 -126.374878 309 30026ft 305kts
29-Jul-20 08:10 49.544510 -126.468417 309 30026ft 305kts
29-Jul-20 08:11 49.603912 -126.562544 313 30017ft 308kts
29-Jul-20 08:12 49.667976 -126.648755 310 30024ft 306kts
29-Jul-20 08:13 49.728528 -126.742402 309 30022ft 306kts
29-Jul-20 08:14 49.788544 -126.835892 309 30020ft 306kts
29-Jul-20 08:15 49.848525 -126.929683 309 30020ft 306kts
29-Jul-20 08:16 49.908666 -127.024049 308 30020ft 307kts
29-Jul-20 08:17 49.968720 -127.118665 308 30020ft 309kts
29-Jul-20 08:18 50.029297 -127.214477 308 30022ft 311kts
29-Jul-20 08:19 50.090288 -127.311329 308 30022ft 313kts
29-Jul-20 08:20 50.151182 -127.408373 308 30014ft 312kts
29-Jul-20 08:21 50.211992 -127.505665 308 30014ft 312kts
29-Jul-20 08:22 50.272845 -127.602987 308 30014ft 312kts
29-Jul-20 08:23 50.333862 -127.700269 307 30017ft 312kts
29-Jul-20 08:24 50.394683 -127.797614 307 30018ft 312kts
29-Jul-20 08:25 50.455528 -127.895376 307 30018ft 313kts
29-Jul-20 08:26 50.516562 -127.993831 307 30018ft 313kts
29-Jul-20 08:27 50.577217 -128.092058 307 30018ft 313kts
29-Jul-20 08:28 50.637887 -128.190701 307 30018ft 313kts
29-Jul-20 08:29 50.698363 -128.289417 307 30019ft 313kts
29-Jul-20 08:30 50.758901 -128.388624 307 30019ft 313kts
29-Jul-20 08:31 50.824404 -128.480609 315 30019ft 317kts
29-Jul-20 08:32 50.893141 -128.568336 315 30020ft 317kts
29-Jul-20 08:33 50.961916 -128.656419 313 30022ft 317kts
29-Jul-20 08:34 51.030165 -128.744214 312 30025ft 315kts
29-Jul-20 08:35 51.098181 -128.832112 311 30024ft 314kts
29-Jul-20 08:36 51.165742 -128.919700 311 30013ft 312kts
29-Jul-20 08:37 51.233159 -129.007449 311 30014ft 314kts
29-Jul-20 08:38 51.301092 -129.096221 311 30015ft 316kts
29-Jul-20 08:39 51.369414 -129.185855 311 30016ft 319kts
29-Jul-20 08:40 51.438211 -129.276467 311 30016ft 320kts
29-Jul-20 08:41 51.506760 -129.367117 311 30017ft 320kts
29-Jul-20 08:42 51.575436 -129.458302 311 30017ft 320kts
29-Jul-20 08:43 51.644079 -129.549814 311 30017ft 320kts
29-Jul-20 08:44 51.712723 -129.641701 311 30020ft 320kts
29-Jul-20 08:45 51.781243 -129.733796 310 30031ft 320kts
29-Jul-20 08:46 51.851275 -129.828470 311 29077ft 347kts
29-Jul-20 08:47 51.926637 -129.934554 313 27131ft 369kts
29-Jul-20 08:48 52.003203 -130.040695 313 25855ft 350kts
29-Jul-20 08:49 52.076980 -130.143994 313 24430ft 350kts
29-Jul-20 08:50 52.150587 -130.247479 314 22896ft 350kts
29-Jul-20 08:51 52.223597 -130.350578 315 21358ft 345kts
29-Jul-20 08:52 52.295147 -130.452070 315 19852ft 337kts
29-Jul-20 08:53 52.365080 -130.551709 316 18380ft 330kts
29-Jul-20 08:54 52.433310 -130.649346 317 16939ft 322kts
29-Jul-20 08:55 52.500060 -130.745269 316 15525ft 317kts
29-Jul-20 08:56 52.566090 -130.840551 317 14124ft 314kts
29-Jul-20 08:57 52.630401 -130.933737 317 12753ft 301kts
29-Jul-20 08:58 52.686914 -131.015922 317 11511ft 230kts
29-Jul-20 08:59 52.730682 -131.079742 317 10600ft 204kts
29-Jul-20 09:00 52.773504 -131.142403 316 9721ft 206kts
29-Jul-20 09:01 52.816440 -131.205412 316 8810ft 207kts
29-Jul-20 09:02 52.859484 -131.268752 316 7890ft 206kts
29-Jul-20 09:03 52.902235 -131.331846 316 6933ft 206kts
29-Jul-20 09:04 52.944711 -131.394692 316 6057ft 202kts
29-Jul-20 09:05 52.986537 -131.456748 316 5170ft 201kts
29-Jul-20 09:06 53.026964 -131.516879 315 4291ft 186kts
29-Jul-20 09:07 53.064308 -131.572569 315 3496ft 175kts
29-Jul-20 09:09 53.099499 -131.625170 315 2740ft 162kts
29-Jul-20 09:10 53.129674 -131.664646 320 2464ft 118kts
29-Jul-20 09:11 53.157729 -131.698457 321 1774ft 114kts
29-Jul-20 09:12 53.181235 -131.726436 321 1418ft 100kts
29-Jul-20 09:13 53.200974 -131.749752 322 1076ft 86kts
29-Jul-20 09:14 53.220653 -131.772794 318 841ft 87kts
29-Jul-20 09:15 53.240383 -131.796949 320 269ft 88kts
29-Jul-20 09:16 53.254219 -131.813863 295 27ft 18kts
29-Jul-20 09:17 53.253198 -131.815694 228 29ft 2kts
29-Jul-20 09:18 53.253068 -131.815976 234 29ft 0kts
29-Jul-20 09:19 53.253068 -131.815975 234 29ft 0kts
29-Jul-20 09:20 53.253068 -131.815975 234 29ft 0kts
29-Jul-20 09:21 53.253068 -131.815975 234 29ft 0kts

Navigation Log

Ident Type
Flight plan parsing failed, navigation log unavailable